sensor_id;sensor_type;location;lat;lon;timestamp;pressure;altitude;pressure_sealevel;temperature;humidity
66524;BME280;53350;52.210;5.160;2023-05-02T00:01:46;102081.44;;;12.92;73.70
66524;BME280;53350;52.210;5.160;2023-05-02T00:04:12;102074.56;;;12.97;74.08
66524;BME280;53350;52.210;5.160;2023-05-02T00:06:39;102070.22;;;13.07;73.59
66524;BME280;53350;52.210;5.160;2023-05-02T00:09:06;102070.22;;;13.11;73.39
66524;BME280;53350;52.210;5.160;2023-05-02T00:11:33;102072.78;;;13.17;73.10
66524;BME280;53350;52.210;5.160;2023-05-02T00:13:59;102073.66;;;13.19;73.13
66524;BME280;53350;52.210;5.160;2023-05-02T00:16:27;102073.63;;;13.21;72.72
66524;BME280;53350;52.210;5.160;2023-05-02T00:18:53;102076.22;;;13.19;72.59
66524;BME280;53350;52.210;5.160;2023-05-02T00:21:20;102081.41;;;13.18;72.83
66524;BME280;53350;52.210;5.160;2023-05-02T00:23:46;102090.03;;;13.12;72.83
66524;BME280;53350;52.210;5.160;2023-05-02T00:26:13;102082.25;;;13.17;73.15
66524;BME280;53350;52.210;5.160;2023-05-02T00:28:39;102087.47;;;13.14;73.40
66524;BME280;53350;52.210;5.160;2023-05-02T00:31:05;102083.13;;;13.14;73.41
66524;BME280;53350;52.210;5.160;2023-05-02T00:33:33;102077.97;;;13.14;73.71
66524;BME280;53350;52.210;5.160;2023-05-02T00:36:00;102078.81;;;13.18;73.72
66524;BME280;53350;52.210;5.160;2023-05-02T00:38:26;102093.47;;;13.17;73.91
66524;BME280;53350;52.210;5.160;2023-05-02T00:40:52;102088.28;;;13.16;73.82
66524;BME280;53350;52.210;5.160;2023-05-02T00:43:19;102097.81;;;13.11;73.48
66524;BME280;53350;52.210;5.160;2023-05-02T00:45:45;102095.19;;;13.09;74.38
66524;BME280;53350;52.210;5.160;2023-05-02T00:48:12;102100.41;;;13.11;74.36
66524;BME280;53350;52.210;5.160;2023-05-02T00:50:41;102109.88;;;13.07;74.44
66524;BME280;53350;52.210;5.160;2023-05-02T00:53:08;102109.03;;;12.99;74.77
66524;BME280;53350;52.210;5.160;2023-05-02T00:55:35;102107.31;;;12.92;74.67
66524;BME280;53350;52.210;5.160;2023-05-02T00:58:04;102108.22;;;12.89;74.89
66524;BME280;53350;52.210;5.160;2023-05-02T01:00:39;102111.63;;;12.91;74.62
66524;BME280;53350;52.210;5.160;2023-05-02T01:03:16;102121.13;;;12.89;74.05
66524;BME280;53350;52.210;5.160;2023-05-02T01:05:52;102128.03;;;12.84;74.41
66524;BME280;53350;52.210;5.160;2023-05-02T01:08:28;102116.84;;;12.80;74.29
66524;BME280;53350;52.210;5.160;2023-05-02T01:11:03;102129.75;;;12.66;74.56
66524;BME280;53350;52.210;5.160;2023-05-02T01:13:32;102134.06;;;12.64;74.37
66524;BME280;53350;52.210;5.160;2023-05-02T01:16:01;102132.34;;;12.60;73.95
66524;BME280;53350;52.210;5.160;2023-05-02T01:18:31;102138.34;;;12.44;73.75
66524;BME280;53350;52.210;5.160;2023-05-02T01:21:05;102127.16;;;12.46;73.68
66524;BME280;53350;52.210;5.160;2023-05-02T01:23:40;102146.97;;;12.38;73.62
66524;BME280;53350;52.210;5.160;2023-05-02T01:26:14;102138.34;;;12.39;73.57
66524;BME280;53350;52.210;5.160;2023-05-02T01:29:07;102145.22;;;12.32;73.44
66524;BME280;53350;52.210;5.160;2023-05-02T01:31:37;102116.81;;;12.12;73.01
66524;BME280;53350;52.210;5.160;2023-05-02T01:34:07;102144.38;;;12.27;72.44
66524;BME280;53350;52.210;5.160;2023-05-02T01:36:35;102159.88;;;12.18;72.77
66524;BME280;53350;52.210;5.160;2023-05-02T01:39:04;102165.00;;;12.10;72.86
66524;BME280;53350;52.210;5.160;2023-05-02T01:41:32;102171.03;;;12.12;72.78
66524;BME280;53350;52.210;5.160;2023-05-02T01:44:01;102159.00;;;12.17;72.17
66524;BME280;53350;52.210;5.160;2023-05-02T01:46:32;102167.56;;;12.01;71.76
66524;BME280;53350;52.210;5.160;2023-05-02T01:49:01;102168.41;;;12.06;71.40
66524;BME280;53350;52.210;5.160;2023-05-02T01:51:31;102162.41;;;12.06;71.16
66524;BME280;53350;52.210;5.160;2023-05-02T01:53:59;102170.16;;;12.10;71.07
66524;BME280;53350;52.210;5.160;2023-05-02T01:56:28;102176.16;;;12.03;70.90
66524;BME280;53350;52.210;5.160;2023-05-02T01:58:58;102175.31;;;12.07;70.61
66524;BME280;53350;52.210;5.160;2023-05-02T02:01:25;102177.91;;;12.07;70.37
66524;BME280;53350;52.210;5.160;2023-05-02T02:03:57;102185.66;;;12.01;69.79
66524;BME280;53350;52.210;5.160;2023-05-02T02:06:25;102188.22;;;12.01;69.53
66524;BME280;53350;52.210;5.160;2023-05-02T02:08:52;102195.09;;;11.99;69.41
66524;BME280;53350;52.210;5.160;2023-05-02T02:11:24;102190.72;;;11.92;69.39
66524;BME280;53350;52.210;5.160;2023-05-02T02:13:59;102201.91;;;11.89;69.32
66524;BME280;53350;52.210;5.160;2023-05-02T02:16:31;102203.63;;;11.89;69.26
66524;BME280;53350;52.210;5.160;2023-05-02T02:19:04;102207.09;;;11.89;69.23
66524;BME280;53350;52.210;5.160;2023-05-02T02:21:33;102207.94;;;11.90;68.86
66524;BME280;53350;52.210;5.160;2023-05-02T02:24:01;102208.78;;;11.89;68.81
66524;BME280;53350;52.210;5.160;2023-05-02T02:26:29;102212.25;;;11.89;68.90
66524;BME280;53350;52.210;5.160;2023-05-02T02:28:55;102217.41;;;11.91;68.53
66524;BME280;53350;52.210;5.160;2023-05-02T02:31:22;102224.31;;;11.93;68.47
66524;BME280;53350;52.210;5.160;2023-05-02T02:33:50;102220.84;;;11.85;68.84
66524;BME280;53350;52.210;5.160;2023-05-02T02:36:23;102219.09;;;11.82;68.82
66524;BME280;53350;52.210;5.160;2023-05-02T02:38:57;102220.78;;;11.76;69.23
66524;BME280;53350;52.210;5.160;2023-05-02T02:41:32;102225.09;;;11.78;69.02
66524;BME280;53350;52.210;5.160;2023-05-02T02:44:05;102233.72;;;11.79;69.12
66524;BME280;53350;52.210;5.160;2023-05-02T02:46:45;102224.25;;;11.79;69.15
66524;BME280;53350;52.210;5.160;2023-05-02T02:49:20;102218.19;;;11.74;69.41
66524;BME280;53350;52.210;5.160;2023-05-02T02:51:58;102224.19;;;11.70;69.53
66524;BME280;53350;52.210;5.160;2023-05-02T02:54:31;102222.47;;;11.66;69.57
66524;BME280;53350;52.210;5.160;2023-05-02T02:57:01;102246.56;;;11.68;69.43
66524;BME280;53350;52.210;5.160;2023-05-02T02:59:32;102234.50;;;11.69;69.56
66524;BME280;53350;52.210;5.160;2023-05-02T03:02:02;102247.41;;;11.69;69.35
66524;BME280;53350;52.210;5.160;2023-05-02T03:04:30;102250.88;;;11.74;69.13
66524;BME280;53350;52.210;5.160;2023-05-02T03:07:00;102253.47;;;11.72;69.09
66524;BME280;53350;52.210;5.160;2023-05-02T03:09:26;102264.66;;;11.77;69.01
66524;BME280;53350;52.210;5.160;2023-05-02T03:11:57;102262.13;;;11.82;68.75
66524;BME280;53350;52.210;5.160;2023-05-02T03:14:24;102268.13;;;11.79;68.66
66524;BME280;53350;52.210;5.160;2023-05-02T03:16:50;102268.06;;;11.69;68.64
66524;BME280;53350;52.210;5.160;2023-05-02T03:19:17;102263.78;;;11.69;68.46
66524;BME280;53350;52.210;5.160;2023-05-02T03:21:43;102269.72;;;11.57;68.40
66524;BME280;53350;52.210;5.160;2023-05-02T03:24:11;102279.09;;;11.44;68.50
66524;BME280;53350;52.210;5.160;2023-05-02T03:26:38;102272.19;;;11.42;68.10
66524;BME280;53350;52.210;5.160;2023-05-02T03:29:04;102280.78;;;11.42;67.77
66524;BME280;53350;52.210;5.160;2023-05-02T03:31:30;102284.25;;;11.44;67.40
66524;BME280;53350;52.210;5.160;2023-05-02T03:33:57;102289.44;;;11.47;67.21
66524;BME280;53350;52.210;5.160;2023-05-02T03:36:23;102289.47;;;11.52;66.96
66524;BME280;53350;52.210;5.160;2023-05-02T03:38:50;102304.06;;;11.48;66.92
66524;BME280;53350;52.210;5.160;2023-05-02T03:41:17;102305.78;;;11.48;66.68
66524;BME280;53350;52.210;5.160;2023-05-02T03:43:44;102306.69;;;11.52;66.50
66524;BME280;53350;52.210;5.160;2023-05-02T03:46:11;102299.78;;;11.51;66.21
66524;BME280;53350;52.210;5.160;2023-05-02T03:48:37;102309.25;;;11.52;66.01
66524;BME280;53350;52.210;5.160;2023-05-02T03:51:05;102301.50;;;11.48;66.40
66524;BME280;53350;52.210;5.160;2023-05-02T03:53:33;102304.06;;;11.48;65.95
66524;BME280;53350;52.210;5.160;2023-05-02T03:56:00;102297.16;;;11.44;66.28
66524;BME280;53350;52.210;5.160;2023-05-02T03:58:28;102304.81;;;11.38;66.81
66524;BME280;53350;52.210;5.160;2023-05-02T04:00:54;102310.88;;;11.39;66.57
66524;BME280;53350;52.210;5.160;2023-05-02T04:03:21;102306.50;;;11.30;66.99
66524;BME280;53350;52.210;5.160;2023-05-02T04:05:48;102313.31;;;11.25;67.24
66524;BME280;53350;52.210;5.160;2023-05-02T04:08:15;102307.34;;;11.27;67.33
66524;BME280;53350;52.210;5.160;2023-05-02T04:10:42;102307.34;;;11.27;67.42
66524;BME280;53350;52.210;5.160;2023-05-02T04:13:08;102308.19;;;11.28;67.60
66524;BME280;53350;52.210;5.160;2023-05-02T04:15:36;102316.81;;;11.30;67.61
66524;BME280;53350;52.210;5.160;2023-05-02T04:18:02;102311.69;;;11.33;67.79
66524;BME280;53350;52.210;5.160;2023-05-02T04:20:29;102321.19;;;11.37;67.63
66524;BME280;53350;52.210;5.160;2023-05-02T04:22:55;102329.75;;;11.35;67.85
66524;BME280;53350;52.210;5.160;2023-05-02T04:25:22;102341.81;;;11.37;67.75
66524;BME280;53350;52.210;5.160;2023-05-02T04:27:48;102345.22;;;11.35;67.81
66524;BME280;53350;52.210;5.160;2023-05-02T04:30:15;102346.97;;;11.36;68.11
66524;BME280;53350;52.210;5.160;2023-05-02T04:32:43;102354.69;;;11.34;68.29
66524;BME280;53350;52.210;5.160;2023-05-02T04:35:09;102356.34;;;11.27;68.48
66524;BME280;53350;52.210;5.160;2023-05-02T04:37:36;102357.22;;;11.31;68.42
66524;BME280;53350;52.210;5.160;2023-05-02T04:40:03;102357.22;;;11.31;68.30
66524;BME280;53350;52.210;5.160;2023-05-02T04:42:30;102365.00;;;11.33;68.22
66524;BME280;53350;52.210;5.160;2023-05-02T04:44:56;102367.59;;;11.33;68.10
66524;BME280;53350;52.210;5.160;2023-05-02T04:47:23;102368.44;;;11.33;68.08
66524;BME280;53350;52.210;5.160;2023-05-02T04:49:50;102374.38;;;11.26;67.89
66524;BME280;53350;52.210;5.160;2023-05-02T04:52:17;102376.97;;;11.26;67.75
66524;BME280;53350;52.210;5.160;2023-05-02T04:54:43;102386.34;;;11.19;66.98
66524;BME280;53350;52.210;5.160;2023-05-02T04:57:11;102385.44;;;11.12;66.81
66524;BME280;53350;52.210;5.160;2023-05-02T04:59:37;102390.56;;;11.09;66.49
66524;BME280;53350;52.210;5.160;2023-05-02T05:02:04;102394.00;;;11.10;66.48
66524;BME280;53350;52.210;5.160;2023-05-02T05:04:32;102400.91;;;11.12;66.31
66524;BME280;53350;52.210;5.160;2023-05-02T05:06:59;102401.78;;;11.16;66.07
66524;BME280;53350;52.210;5.160;2023-05-02T05:09:26;102405.34;;;11.24;65.96
66524;BME280;53350;52.210;5.160;2023-05-02T05:11:52;102405.41;;;11.32;65.70
66524;BME280;53350;52.210;5.160;2023-05-02T05:14:19;102413.13;;;11.30;65.04
66524;BME280;53350;52.210;5.160;2023-05-02T05:16:46;102403.59;;;11.23;65.05
66524;BME280;53350;52.210;5.160;2023-05-02T05:19:12;102412.94;;;11.15;65.38
66524;BME280;53350;52.210;5.160;2023-05-02T05:21:38;102418.94;;;11.09;65.37
66524;BME280;53350;52.210;5.160;2023-05-02T05:24:06;102429.19;;;11.08;65.12
66524;BME280;53350;52.210;5.160;2023-05-02T05:26:33;102427.47;;;11.04;65.16
66524;BME280;53350;52.210;5.160;2023-05-02T05:28:59;102432.47;;;10.93;64.94
66524;BME280;53350;52.210;5.160;2023-05-02T05:31:26;102427.38;;;10.98;64.28
66524;BME280;53350;52.210;5.160;2023-05-02T05:33:52;102435.94;;;10.93;64.68
66524;BME280;53350;52.210;5.160;2023-05-02T05:36:19;102435.91;;;10.92;64.79
66524;BME280;53350;52.210;5.160;2023-05-02T05:38:45;102431.56;;;10.88;64.69
66524;BME280;53350;52.210;5.160;2023-05-02T05:41:13;102443.53;;;10.83;65.79
66524;BME280;53350;52.210;5.160;2023-05-02T05:43:39;102441.78;;;10.82;65.74
66524;BME280;53350;52.210;5.160;2023-05-02T05:46:06;102447.84;;;10.82;65.59
66524;BME280;53350;52.210;5.160;2023-05-02T05:48:32;102454.78;;;10.88;65.11
66524;BME280;53350;52.210;5.160;2023-05-02T05:51:02;102455.72;;;10.96;64.34
66524;BME280;53350;52.210;5.160;2023-05-02T05:53:29;102456.69;;;11.04;63.56
66524;BME280;53350;52.210;5.160;2023-05-02T05:55:56;102455.03;;;11.09;62.82
66524;BME280;53350;52.210;5.160;2023-05-02T05:58:24;102473.94;;;11.10;61.86
66524;BME280;53350;52.210;5.160;2023-05-02T06:00:51;102478.25;;;11.09;61.77
66524;BME280;53350;52.210;5.160;2023-05-02T06:03:17;102468.81;;;11.11;60.95
66524;BME280;53350;52.210;5.160;2023-05-02T06:05:43;102476.59;;;11.16;60.74
66524;BME280;53350;52.210;5.160;2023-05-02T06:08:10;102480.06;;;11.17;60.55
66524;BME280;53350;52.210;5.160;2023-05-02T06:10:36;102480.94;;;11.20;60.37
66524;BME280;53350;52.210;5.160;2023-05-02T06:13:03;102486.97;;;11.22;59.40
66524;BME280;53350;52.210;5.160;2023-05-02T06:15:32;102484.38;;;11.22;58.80
66524;BME280;53350;52.210;5.160;2023-05-02T06:17:58;102496.38;;;11.16;57.20
66524;BME280;53350;52.210;5.160;2023-05-02T06:20:25;102500.00;;;11.33;57.63
66524;BME280;53350;52.210;5.160;2023-05-02T06:22:51;102512.13;;;11.39;57.89
66524;BME280;53350;52.210;5.160;2023-05-02T06:25:17;102511.31;;;11.44;57.88
66524;BME280;53350;52.210;5.160;2023-05-02T06:27:44;102518.19;;;11.44;58.46
66524;BME280;53350;52.210;5.160;2023-05-02T06:30:11;102524.19;;;11.40;58.99
66524;BME280;53350;52.210;5.160;2023-05-02T06:32:39;102524.09;;;11.34;59.54
66524;BME280;53350;52.210;5.160;2023-05-02T06:35:07;102524.06;;;11.30;59.76
66524;BME280;53350;52.210;5.160;2023-05-02T06:37:33;102531.78;;;11.29;59.98
66524;BME280;53350;52.210;5.160;2023-05-02T06:40:00;102541.97;;;11.18;60.79
66524;BME280;53350;52.210;5.160;2023-05-02T06:42:27;102541.88;;;11.13;61.66
66524;BME280;53350;52.210;5.160;2023-05-02T06:44:53;102550.38;;;11.06;62.07
66524;BME280;53350;52.210;5.160;2023-05-02T06:47:20;102552.06;;;11.03;62.60
66524;BME280;53350;52.210;5.160;2023-05-02T06:49:49;102556.38;;;11.02;62.78
66524;BME280;53350;52.210;5.160;2023-05-02T06:52:16;102567.50;;;10.98;63.43
66524;BME280;53350;52.210;5.160;2023-05-02T06:54:42;102578.59;;;10.94;63.48
66524;BME280;53350;52.210;5.160;2023-05-02T06:57:09;102571.66;;;10.90;63.78
66524;BME280;53350;52.210;5.160;2023-05-02T06:59:35;102575.06;;;10.89;63.68
66524;BME280;53350;52.210;5.160;2023-05-02T07:02:02;102585.38;;;10.89;63.67
66524;BME280;53350;52.210;5.160;2023-05-02T07:04:28;102599.91;;;10.82;63.70
66524;BME280;53350;52.210;5.160;2023-05-02T07:06:56;102598.94;;;10.74;64.04
66524;BME280;53350;52.210;5.160;2023-05-02T07:09:23;102587.78;;;10.75;63.82
66524;BME280;53350;52.210;5.160;2023-05-02T07:11:49;102593.09;;;10.86;63.84
66524;BME280;53350;52.210;5.160;2023-05-02T07:14:16;102593.16;;;10.92;63.62
66524;BME280;53350;52.210;5.160;2023-05-02T07:16:45;102610.56;;;11.04;62.12
66524;BME280;53350;52.210;5.160;2023-05-02T07:19:12;102619.56;;;10.75;60.32
66524;BME280;53350;52.210;5.160;2023-05-02T07:21:38;102610.34;;;10.91;60.34
66524;BME280;53350;52.210;5.160;2023-05-02T07:24:06;102602.69;;;10.96;60.07
66524;BME280;53350;52.210;5.160;2023-05-02T07:26:33;102613.84;;;10.93;60.02
66524;BME280;53350;52.210;5.160;2023-05-02T07:28:59;102610.34;;;10.90;59.95
66524;BME280;53350;52.210;5.160;2023-05-02T07:31:26;102619.91;;;10.97;59.89
66524;BME280;53350;52.210;5.160;2023-05-02T07:33:52;102619.94;;;11.00;59.65
66524;BME280;53350;52.210;5.160;2023-05-02T07:36:18;102627.66;;;10.99;59.86
66524;BME280;53350;52.210;5.160;2023-05-02T07:38:45;102619.13;;;11.03;59.31
66524;BME280;53350;52.210;5.160;2023-05-02T07:41:13;102615.63;;;10.99;59.50
66524;BME280;53350;52.210;5.160;2023-05-02T07:43:40;102630.25;;;11.00;59.52
66524;BME280;53350;52.210;5.160;2023-05-02T07:46:06;102630.25;;;11.00;59.58
66524;BME280;53350;52.210;5.160;2023-05-02T07:48:32;102621.81;;;11.12;59.43
66524;BME280;53350;52.210;5.160;2023-05-02T07:51:05;102622.75;;;11.16;59.33
66524;BME280;53350;52.210;5.160;2023-05-02T07:53:32;102623.63;;;11.19;59.06
66524;BME280;53350;52.210;5.160;2023-05-02T07:55:58;102635.81;;;11.29;58.38
66524;BME280;53350;52.210;5.160;2023-05-02T07:58:26;102628.94;;;11.27;58.18
66524;BME280;53350;52.210;5.160;2023-05-02T08:00:52;102637.44;;;11.20;56.81
66524;BME280;53350;52.210;5.160;2023-05-02T08:03:19;102641.69;;;11.19;56.87
66524;BME280;53350;52.210;5.160;2023-05-02T08:05:45;102634.84;;;11.20;56.96
66524;BME280;53350;52.210;5.160;2023-05-02T08:08:12;102629.78;;;11.27;56.61
66524;BME280;53350;52.210;5.160;2023-05-02T08:10:38;102629.00;;;11.33;56.89
66524;BME280;53350;52.210;5.160;2023-05-02T08:13:05;102638.78;;;11.56;56.87
66524;BME280;53350;52.210;5.160;2023-05-02T08:15:33;102644.22;;;11.79;55.74
66524;BME280;53350;52.210;5.160;2023-05-02T08:17:59;102639.25;;;11.96;55.07
66524;BME280;53350;52.210;5.160;2023-05-02T08:20:25;102646.16;;;11.98;54.52
66524;BME280;53350;52.210;5.160;2023-05-02T08:22:52;102649.56;;;11.96;55.31
66524;BME280;53350;52.210;5.160;2023-05-02T08:25:18;102634.97;;;11.98;54.30
66524;BME280;53350;52.210;5.160;2023-05-02T08:27:45;102651.50;;;12.14;54.07
66524;BME280;53350;52.210;5.160;2023-05-02T08:30:12;102645.59;;;12.26;53.64
66524;BME280;53350;52.210;5.160;2023-05-02T08:32:39;102654.41;;;12.49;53.48
66524;BME280;53350;52.210;5.160;2023-05-02T08:35:07;102658.03;;;12.70;52.22
66524;BME280;53350;52.210;5.160;2023-05-02T08:37:33;102662.44;;;12.80;51.78
66524;BME280;53350;52.210;5.160;2023-05-02T08:40:00;102668.34;;;12.67;51.65
66524;BME280;53350;52.210;5.160;2023-05-02T08:42:27;102673.50;;;12.62;51.54
66524;BME280;53350;52.210;5.160;2023-05-02T08:44:54;102671.81;;;12.67;51.33
66524;BME280;53350;52.210;5.160;2023-05-02T08:47:21;102683.00;;;12.66;51.37
66524;BME280;53350;52.210;5.160;2023-05-02T08:49:50;102677.84;;;12.66;51.22
66524;BME280;53350;52.210;5.160;2023-05-02T08:52:19;102680.38;;;12.60;50.94
66524;BME280;53350;52.210;5.160;2023-05-02T08:54:45;102688.06;;;12.54;51.31
66524;BME280;53350;52.210;5.160;2023-05-02T08:57:12;102688.03;;;12.52;51.28
66524;BME280;53350;52.210;5.160;2023-05-02T08:59:39;102682.06;;;12.60;50.96
66524;BME280;53350;52.210;5.160;2023-05-02T09:02:09;102689.00;;;12.64;51.02
66524;BME280;53350;52.210;5.160;2023-05-02T09:04:40;102689.84;;;12.63;51.05
66524;BME280;53350;52.210;5.160;2023-05-02T09:07:08;102696.75;;;12.61;51.23
66524;BME280;53350;52.210;5.160;2023-05-02T09:09:34;102701.94;;;12.65;50.75
66524;BME280;53350;52.210;5.160;2023-05-02T09:12:02;102710.53;;;12.63;49.48
66524;BME280;53350;52.210;5.160;2023-05-02T09:14:29;102713.88;;;12.49;48.10
66524;BME280;53350;52.210;5.160;2023-05-02T09:16:57;102712.16;;;12.48;48.05
66524;BME280;53350;52.210;5.160;2023-05-02T09:19:25;102706.94;;;12.45;48.21
66524;BME280;53350;52.210;5.160;2023-05-02T09:21:58;102701.75;;;12.44;47.52
66524;BME280;53350;52.210;5.160;2023-05-02T09:24:26;102706.88;;;12.39;47.41
66524;BME280;53350;52.210;5.160;2023-05-02T09:26:56;102716.25;;;12.29;48.29
66524;BME280;53350;52.210;5.160;2023-05-02T09:29:23;102718.94;;;12.39;47.31
66524;BME280;53350;52.210;5.160;2023-05-02T09:31:50;102724.09;;;12.39;46.78
66524;BME280;53350;52.210;5.160;2023-05-02T09:34:17;102724.16;;;12.45;46.74
66524;BME280;53350;52.210;5.160;2023-05-02T09:36:45;102731.09;;;12.47;47.22
66524;BME280;53350;52.210;5.160;2023-05-02T09:39:14;102731.16;;;12.55;46.57
66524;BME280;53350;52.210;5.160;2023-05-02T09:41:42;102715.72;;;12.63;45.88
66524;BME280;53350;52.210;5.160;2023-05-02T09:44:10;102729.66;;;12.79;45.64
66524;BME280;53350;52.210;5.160;2023-05-02T09:46:40;102731.47;;;12.87;44.12
66524;BME280;53350;52.210;5.160;2023-05-02T09:49:07;102721.16;;;12.92;44.65
66524;BME280;53350;52.210;5.160;2023-05-02T09:51:34;102724.66;;;13.00;44.81
66524;BME280;53350;52.210;5.160;2023-05-02T09:54:00;102720.47;;;13.16;44.16
66524;BME280;53350;52.210;5.160;2023-05-02T09:56:27;102723.16;;;13.27;43.82
66524;BME280;53350;52.210;5.160;2023-05-02T09:59:11;102738.63;;;13.21;44.15
66524;BME280;53350;52.210;5.160;2023-05-02T10:01:39;102735.16;;;13.22;44.27
66524;BME280;53350;52.210;5.160;2023-05-02T10:04:09;102737.78;;;13.25;44.71
66524;BME280;53350;52.210;5.160;2023-05-02T10:06:39;102739.53;;;13.29;44.16
66524;BME280;53350;52.210;5.160;2023-05-02T10:09:06;102743.00;;;13.28;43.84
66524;BME280;53350;52.210;5.160;2023-05-02T10:11:33;102759.34;;;13.22;43.57
66524;BME280;53350;52.210;5.160;2023-05-02T10:14:00;102753.22;;;13.10;43.78
66524;BME280;53350;52.210;5.160;2023-05-02T10:16:28;102739.38;;;13.08;44.14
66524;BME280;53350;52.210;5.160;2023-05-02T10:19:02;102747.13;;;13.06;43.52
66524;BME280;53350;52.210;5.160;2023-05-02T10:21:28;102758.34;;;13.03;43.44
66524;BME280;53350;52.210;5.160;2023-05-02T10:23:56;102753.25;;;13.19;44.05
66524;BME280;53350;52.210;5.160;2023-05-02T10:26:23;102755.19;;;13.38;43.83
66524;BME280;53350;52.210;5.160;2023-05-02T10:28:51;102754.19;;;13.26;42.14
66524;BME280;53350;52.210;5.160;2023-05-02T10:31:17;102757.63;;;13.26;42.87
66524;BME280;53350;52.210;5.160;2023-05-02T10:33:46;102754.19;;;13.27;42.80
66524;BME280;53350;52.210;5.160;2023-05-02T10:36:19;102760.25;;;13.32;42.56
66524;BME280;53350;52.210;5.160;2023-05-02T10:38:46;102760.41;;;13.49;42.40
66524;BME280;53350;52.210;5.160;2023-05-02T10:41:15;102753.59;;;13.64;41.78
66524;BME280;53350;52.210;5.160;2023-05-02T10:43:45;102770.03;;;13.67;41.40
66524;BME280;53350;52.210;5.160;2023-05-02T10:46:31;102762.28;;;13.70;41.64
66524;BME280;53350;52.210;5.160;2023-05-02T10:49:04;102762.28;;;13.70;42.10
66524;BME280;53350;52.210;5.160;2023-05-02T10:51:31;102757.16;;;13.84;41.74
66524;BME280;53350;52.210;5.160;2023-05-02T10:54:18;102764.06;;;13.87;41.79
66524;BME280;53350;52.210;5.160;2023-05-02T10:57:04;102777.88;;;13.84;41.37
66524;BME280;53350;52.210;5.160;2023-05-02T10:59:34;102771.03;;;13.94;41.70
66524;BME280;53350;52.210;5.160;2023-05-02T11:02:01;102766.69;;;13.91;40.99
66524;BME280;53350;52.210;5.160;2023-05-02T11:04:58;102769.34;;;14.02;41.15
66524;BME280;53350;52.210;5.160;2023-05-02T11:07:26;102771.97;;;14.16;40.67
66524;BME280;53350;52.210;5.160;2023-05-02T11:09:52;102770.25;;;14.12;39.87
66524;BME280;53350;52.210;5.160;2023-05-02T11:12:44;102777.09;;;13.96;40.21
66524;BME280;53350;52.210;5.160;2023-05-02T11:15:11;102771.94;;;14.04;40.70
66524;BME280;53350;52.210;5.160;2023-05-02T11:17:59;102776.28;;;14.14;40.42
66524;BME280;53350;52.210;5.160;2023-05-02T11:20:27;102774.59;;;14.22;40.81
66524;BME280;53350;52.210;5.160;2023-05-02T11:22:58;102787.56;;;14.22;40.10
66524;BME280;53350;52.210;5.160;2023-05-02T11:25:47;102794.47;;;14.23;40.12
66524;BME280;53350;52.210;5.160;2023-05-02T11:28:39;102785.00;;;14.29;40.01
66524;BME280;53350;52.210;5.160;2023-05-02T11:31:06;102778.97;;;14.43;40.26
66524;BME280;53350;52.210;5.160;2023-05-02T11:33:33;102779.03;;;14.60;39.77
66524;BME280;53350;52.210;5.160;2023-05-02T11:36:01;102774.75;;;14.72;39.49
66524;BME280;53350;52.210;5.160;2023-05-02T11:38:35;102786.00;;;14.66;39.17
66524;BME280;53350;52.210;5.160;2023-05-02T11:41:02;102786.84;;;14.67;39.41
66524;BME280;53350;52.210;5.160;2023-05-02T11:43:28;102783.31;;;14.43;39.54
66524;BME280;53350;52.210;5.160;2023-05-02T11:45:56;102781.56;;;14.33;39.89
66524;BME280;53350;52.210;5.160;2023-05-02T11:48:24;102784.16;;;14.43;39.81
66524;BME280;53350;52.210;5.160;2023-05-02T11:50:53;102786.75;;;14.47;39.42
66524;BME280;53350;52.210;5.160;2023-05-02T11:53:23;102787.66;;;14.49;39.32
66524;BME280;53350;52.210;5.160;2023-05-02T11:55:51;102804.06;;;14.44;39.37
66524;BME280;53350;52.210;5.160;2023-05-02T11:58:21;102800.56;;;14.35;39.26
66524;BME280;53350;52.210;5.160;2023-05-02T12:00:49;102805.66;;;14.12;39.68
66524;BME280;53350;52.210;5.160;2023-05-02T12:03:25;102804.81;;;14.13;39.75
66524;BME280;53350;52.210;5.160;2023-05-02T12:05:51;102812.59;;;14.22;39.17
66524;BME280;53350;52.210;5.160;2023-05-02T12:08:24;102811.72;;;14.17;40.28
66524;BME280;53350;52.210;5.160;2023-05-02T12:10:52;102828.97;;;14.13;39.97
66524;BME280;53350;52.210;5.160;2023-05-02T12:13:20;102817.63;;;13.89;39.80
66524;BME280;53350;52.210;5.160;2023-05-02T12:15:47;102815.88;;;13.87;40.24
66524;BME280;53350;52.210;5.160;2023-05-02T12:18:15;102818.47;;;13.85;40.53
66524;BME280;53350;52.210;5.160;2023-05-02T12:20:42;102821.09;;;13.93;40.55
66524;BME280;53350;52.210;5.160;2023-05-02T12:23:09;102809.03;;;13.95;40.26
66524;BME280;53350;52.210;5.160;2023-05-02T12:25:38;102812.44;;;13.86;40.02
66524;BME280;53350;52.210;5.160;2023-05-02T12:28:05;102815.84;;;13.79;40.30
66524;BME280;53350;52.210;5.160;2023-05-02T12:30:32;102817.53;;;13.74;40.48
66524;BME280;53350;52.210;5.160;2023-05-02T12:33:00;102835.69;;;13.77;40.73
66524;BME280;53350;52.210;5.160;2023-05-02T12:35:27;102831.31;;;13.68;40.29
66524;BME280;53350;52.210;5.160;2023-05-02T12:37:54;102827.81;;;13.60;41.05
66524;BME280;53350;52.210;5.160;2023-05-02T12:40:32;102838.25;;;13.72;41.33
66524;BME280;53350;52.210;5.160;2023-05-02T12:43:01;102844.34;;;13.81;40.80
66524;BME280;53350;52.210;5.160;2023-05-02T12:45:28;102846.97;;;13.85;40.97
66524;BME280;53350;52.210;5.160;2023-05-02T12:47:58;102842.63;;;13.83;41.06
66524;BME280;53350;52.210;5.160;2023-05-02T12:50:34;102846.09;;;13.80;41.50
66524;BME280;53350;52.210;5.160;2023-05-02T12:53:01;102855.66;;;13.92;40.45
66524;BME280;53350;52.210;5.160;2023-05-02T12:55:28;102845.25;;;13.87;40.57
66524;BME280;53350;52.210;5.160;2023-05-02T12:58:00;102834.91;;;13.90;40.88